createdAt,value
2019-06-01T00:00:40.035Z,70.83
2019-06-01T00:03:12.154Z,70.73
2019-06-01T00:05:44.554Z,70.85
2019-06-01T00:08:15.817Z,70.79
2019-06-01T00:10:47.749Z,70.96
2019-06-01T00:13:18.963Z,70.94
2019-06-01T00:15:50.476Z,71.07
2019-06-01T00:18:21.637Z,71.88
2019-06-01T00:20:52.853Z,71.13
2019-06-01T00:23:24.035Z,71.58
2019-06-01T00:25:55.372Z,71.55
2019-06-01T00:28:26.599Z,71.36
2019-06-01T00:30:57.836Z,71.28
2019-06-01T00:33:28.896Z,70.91
2019-06-01T00:36:00.146Z,71.29
2019-06-01T00:38:31.715Z,71.31
2019-06-01T00:41:02.885Z,71.52
2019-06-01T00:43:34.055Z,71.50
2019-06-01T00:46:05.195Z,72.01
2019-06-01T00:48:36.342Z,72.23
2019-06-01T00:51:07.480Z,72.40
2019-06-01T00:53:38.653Z,71.41
2019-06-01T00:56:09.680Z,71.26
2019-06-01T00:58:41.139Z,71.50
2019-06-01T01:01:12.696Z,71.79
2019-06-01T01:03:44.005Z,71.23
2019-06-01T01:06:15.335Z,71.69
2019-06-01T01:08:47.085Z,71.60
2019-06-01T01:11:18.308Z,71.91
2019-06-01T01:13:49.557Z,71.85
2019-06-01T01:16:20.731Z,71.01
2019-06-01T01:18:53.774Z,71.67
2019-06-01T01:21:25.976Z,71.48
2019-06-01T01:23:57.144Z,71.10
2019-06-01T01:26:28.193Z,71.32
2019-06-01T01:28:59.408Z,71.38
2019-06-01T01:31:30.507Z,71.19
2019-06-01T01:34:01.811Z,71.31
2019-06-01T01:36:33.467Z,71.86
2019-06-01T01:39:06.092Z,71.69
2019-06-01T01:41:37.373Z,71.81
2019-06-01T01:44:08.625Z,71.80
2019-06-01T01:46:39.901Z,71.51
2019-06-01T01:49:10.942Z,72.14
2019-06-01T01:51:42.220Z,72.37
2019-06-01T01:54:13.390Z,71.97
2019-06-01T01:56:44.449Z,71.85
2019-06-01T01:59:15.605Z,71.86
2019-06-01T02:01:46.790Z,71.84
2019-06-01T02:04:18.116Z,72.02
2019-06-01T02:06:49.336Z,71.84
2019-06-01T02:09:20.485Z,72.11
2019-06-01T02:11:51.595Z,72.29
2019-06-01T02:14:23.160Z,72.36
2019-06-01T02:16:54.342Z,72.61
2019-06-01T02:19:25.405Z,71.88
2019-06-01T02:21:56.544Z,72.14
2019-06-01T02:24:27.721Z,72.24
2019-06-01T02:26:59.423Z,72.19
2019-06-01T02:29:30.692Z,72.15
2019-06-01T02:32:04.764Z,71.75
2019-06-01T02:34:36.017Z,71.45
2019-06-01T02:37:07.213Z,71.81
2019-06-01T02:39:38.655Z,71.21
2019-06-01T02:42:11.533Z,71.66
2019-06-01T02:44:42.686Z,71.87
2019-06-01T02:47:13.781Z,72.10
2019-06-01T02:49:44.917Z,71.68
2019-06-01T02:52:16.078Z,71.17
2019-06-01T02:54:47.296Z,71.33
2019-06-01T02:57:18.418Z,70.87
2019-06-01T02:59:49.561Z,71.03
2019-06-01T03:02:20.778Z,71.13
2019-06-01T03:04:52.088Z,70.65
2019-06-01T03:07:24.517Z,71.08
2019-06-01T03:09:56.752Z,71.19
2019-06-01T03:12:31.020Z,70.87
2019-06-01T03:15:02.942Z,70.63
2019-06-01T03:17:37.585Z,70.60
2019-06-01T03:20:09.957Z,70.91
2019-06-01T03:22:43.632Z,70.97
2019-06-01T03:25:15.820Z,71.33
2019-06-01T03:27:50.236Z,71.45
2019-06-01T03:30:56.429Z,71.12
2019-06-01T03:33:27.673Z,70.72
2019-06-01T03:35:59.006Z,71.42
2019-06-01T03:38:30.606Z,71.25
2019-06-01T03:41:02.111Z,70.40
2019-06-01T03:43:33.385Z,71.03
2019-06-01T03:46:04.691Z,70.44
2019-06-01T03:48:36.023Z,70.42
2019-06-01T03:51:08.269Z,70.60
2019-06-01T03:53:39.657Z,70.95
2019-06-01T03:56:11.112Z,70.05
2019-06-01T03:58:42.277Z,70.40
2019-06-01T04:01:13.438Z,69.86
2019-06-01T04:03:44.625Z,70.37
2019-06-01T04:06:15.753Z,70.06
2019-06-01T04:08:46.805Z,70.70
2019-06-01T04:11:18.052Z,70.64
2019-06-01T04:13:49.221Z,70.70
2019-06-01T04:16:20.304Z,71.66
2019-06-01T04:18:51.449Z,71.91
2019-06-01T04:21:22.571Z,70.68
2019-06-01T04:23:53.772Z,69.99
2019-06-01T04:26:25.941Z,70.06
2019-06-01T04:28:57.103Z,69.31
2019-06-01T04:31:28.478Z,69.10
2019-06-01T04:33:59.531Z,68.78
2019-06-01T04:36:30.743Z,68.19
2019-06-01T04:39:03.219Z,68.07
2019-06-01T04:41:34.620Z,67.62
2019-06-01T04:44:06.163Z,68.20
2019-06-01T04:46:37.365Z,67.28
2019-06-01T04:49:08.606Z,66.42
2019-06-01T04:51:39.797Z,65.16
2019-06-01T04:54:11.701Z,65.43
2019-06-01T04:56:44.043Z,64.92
2019-06-01T04:59:15.488Z,64.91
2019-06-01T05:01:46.866Z,64.44
2019-06-01T05:04:18.097Z,62.51
2019-06-01T05:06:49.310Z,63.26
2019-06-01T05:09:20.582Z,63.15
2019-06-01T05:11:51.774Z,63.15
2019-06-01T05:14:22.800Z,63.62
2019-06-01T05:16:54.063Z,64.42
2019-06-01T05:19:25.173Z,64.31
2019-06-01T05:21:56.316Z,64.71
2019-06-01T05:24:27.520Z,64.27
2019-06-01T05:26:58.699Z,64.29
2019-06-01T05:29:29.826Z,64.45
2019-06-01T05:32:01.071Z,63.64
2019-06-01T05:34:32.447Z,61.55
2019-06-01T05:37:03.862Z,60.17
2019-06-01T05:39:35.055Z,60.21
2019-06-01T05:42:06.268Z,60.14
2019-06-01T05:44:37.381Z,59.83
2019-06-01T05:47:08.513Z,60.43
2019-06-01T05:49:39.546Z,61.39
2019-06-01T05:52:10.713Z,61.71
2019-06-01T05:54:42.073Z,61.26
2019-06-01T05:57:13.191Z,61.87
2019-06-01T05:59:44.469Z,62.23
2019-06-01T06:02:15.674Z,61.42
2019-06-01T06:04:46.812Z,62.33
2019-06-01T06:07:18.999Z,61.05
2019-06-01T06:09:50.316Z,60.56
2019-06-01T06:12:21.643Z,60.58
2019-06-01T06:14:52.776Z,60.30
2019-06-01T06:17:24.529Z,60.22
2019-06-01T06:19:55.720Z,58.63
2019-06-01T06:22:26.776Z,57.61
2019-06-01T06:24:57.961Z,50.73
2019-06-01T06:27:29.139Z,43.23
2019-06-01T06:30:00.305Z,40.38
2019-06-01T06:32:31.424Z,38.63
2019-06-01T06:35:02.467Z,37.44
2019-06-01T06:37:34.006Z,37.31
2019-06-01T06:40:05.926Z,39.11
2019-06-01T06:42:37.152Z,39.92
2019-06-01T06:45:08.554Z,42.55
2019-06-01T06:47:39.879Z,42.94
2019-06-01T06:50:17.498Z,39.21
2019-06-01T06:52:49.271Z,37.58
2019-06-01T06:55:22.034Z,37.05
2019-06-01T06:57:53.379Z,38.39
2019-06-01T07:00:24.923Z,33.58
2019-06-01T07:02:56.249Z,30.85
2019-06-01T07:05:30.732Z,30.12
2019-06-01T07:08:00.393Z,29.18
2019-06-01T07:10:31.529Z,31.09
2019-06-01T07:13:02.685Z,33.70
2019-06-01T07:15:33.834Z,34.99
2019-06-01T07:18:05.065Z,37.62
2019-06-01T07:20:36.347Z,35.75
2019-06-01T07:23:07.549Z,35.49
2019-06-01T07:25:38.695Z,33.75
2019-06-01T07:28:09.812Z,36.43
2019-06-01T07:30:50.336Z,32.36
2019-06-01T07:33:13.945Z,31.91
2019-06-01T07:35:45.245Z,33.09
2019-06-01T07:38:16.448Z,33.83
2019-06-01T07:40:47.681Z,37.33
2019-06-01T07:43:18.862Z,35.13
2019-06-01T07:45:50.027Z,38.63
2019-06-01T07:48:21.215Z,39.01
2019-06-01T07:50:52.276Z,38.34
2019-06-01T07:53:24.050Z,41.13
2019-06-01T07:55:55.651Z,39.26
2019-06-01T07:58:26.891Z,41.96
2019-06-01T08:00:57.938Z,42.36
2019-06-01T08:03:32.857Z,42.55
2019-06-01T08:06:01.871Z,40.89
2019-06-01T08:08:32.999Z,41.51
2019-06-01T08:11:04.331Z,43.08
2019-06-01T08:13:35.989Z,40.39
2019-06-01T08:16:07.172Z,41.15
2019-06-01T08:18:38.342Z,44.20
2019-06-01T08:21:09.472Z,42.19
2019-06-01T08:23:40.802Z,40.48
2019-06-01T08:26:11.898Z,40.29
2019-06-01T08:28:43.082Z,40.37
2019-06-01T08:31:14.278Z,41.81
2019-06-01T08:33:45.496Z,43.49
2019-06-01T08:36:16.650Z,42.68
2019-06-01T08:38:47.810Z,43.33
2019-06-01T08:41:18.963Z,42.99
2019-06-01T08:43:50.213Z,43.93
2019-06-01T08:46:21.520Z,44.33
2019-06-01T08:48:53.002Z,43.22
2019-06-01T08:51:24.304Z,43.52
2019-06-01T08:53:55.575Z,42.82
2019-06-01T08:56:28.239Z,43.77
2019-06-01T08:59:03.031Z,43.29
2019-06-01T09:01:34.939Z,42.58
2019-06-01T09:04:06.253Z,43.75
2019-06-01T09:06:37.453Z,42.49
2019-06-01T09:09:11.728Z,42.67
2019-06-01T09:11:42.162Z,42.86
2019-06-01T09:14:13.294Z,44.10
2019-06-01T09:16:44.471Z,42.61
2019-06-01T09:19:15.707Z,43.67
2019-06-01T09:21:46.873Z,43.81
2019-06-01T09:24:18.113Z,42.56
2019-06-01T09:26:49.269Z,44.40
2019-06-01T09:29:20.520Z,44.13
2019-06-01T09:31:51.729Z,44.27
2019-06-01T09:34:22.932Z,42.81
2019-06-01T09:36:55.604Z,43.46
2019-06-01T09:39:27.037Z,43.14
2019-06-01T09:41:58.251Z,42.80
2019-06-01T09:44:31.965Z,44.48
2019-06-01T09:47:03.120Z,42.29
2019-06-01T09:49:37.895Z,43.49
2019-06-01T09:52:11.845Z,43.87
2019-06-01T09:54:40.209Z,42.04
2019-06-01T09:57:11.458Z,42.00
2019-06-01T09:59:42.584Z,42.02
2019-06-01T10:02:13.778Z,42.02
2019-06-01T10:04:44.944Z,42.89
2019-06-01T10:07:16.076Z,43.78
2019-06-01T10:09:47.295Z,42.80
2019-06-01T10:12:18.491Z,41.70
2019-06-01T10:14:49.611Z,41.99
2019-06-01T10:17:20.756Z,43.38
2019-06-01T10:19:51.828Z,42.61
2019-06-01T10:22:22.877Z,42.51
2019-06-01T10:24:55.083Z,42.32
2019-06-01T10:27:26.239Z,43.09
2019-06-01T10:29:57.393Z,44.27
2019-06-01T10:32:28.470Z,44.44
2019-06-01T10:34:59.628Z,43.46
2019-06-01T10:37:31.320Z,44.26
2019-06-01T10:40:02.958Z,44.18
2019-06-01T10:42:35.716Z,44.83
2019-06-01T10:45:07.796Z,43.65
2019-06-01T10:47:40.110Z,43.83
2019-06-01T10:50:12.735Z,44.89
2019-06-01T10:52:43.909Z,44.10
2019-06-01T10:55:16.518Z,44.17
2019-06-01T10:57:47.618Z,42.27
2019-06-01T11:00:37.030Z,42.92
2019-06-01T11:02:52.858Z,40.76
2019-06-01T11:05:23.966Z,40.36
2019-06-01T11:07:55.127Z,41.02
2019-06-01T11:10:26.180Z,39.55
2019-06-01T11:12:57.257Z,40.47
2019-06-01T11:15:28.388Z,40.70
2019-06-01T11:17:59.427Z,40.59
2019-06-01T11:20:30.600Z,40.07
2019-06-01T11:23:01.712Z,41.37
2019-06-01T11:25:35.575Z,40.65
2019-06-01T11:28:06.900Z,41.79
2019-06-01T11:30:38.082Z,41.56
2019-06-01T11:33:09.283Z,39.89
2019-06-01T11:35:41.427Z,41.05
2019-06-01T11:38:13.793Z,41.25
2019-06-01T11:40:45.318Z,41.12
2019-06-01T11:43:16.420Z,39.67
2019-06-01T11:45:47.561Z,39.29
2019-06-01T11:48:18.681Z,39.88
2019-06-01T11:50:49.875Z,39.06
2019-06-01T11:53:21.130Z,38.75
2019-06-01T11:55:52.316Z,40.64
2019-06-01T11:58:23.491Z,40.29
2019-06-01T12:00:54.624Z,40.55
2019-06-01T12:03:25.656Z,39.52
2019-06-01T12:05:56.823Z,38.99
2019-06-01T12:08:28.133Z,37.96
2019-06-01T12:10:59.281Z,39.60
2019-06-01T12:13:30.531Z,39.53
2019-06-01T12:16:01.688Z,40.48
2019-06-01T12:18:32.739Z,41.47
2019-06-01T12:21:04.086Z,42.02
2019-06-01T12:23:35.115Z,42.58
2019-06-01T12:26:06.324Z,43.31
2019-06-01T12:28:37.621Z,42.54
2019-06-01T12:31:08.991Z,40.72
2019-06-01T12:33:40.117Z,41.53
2019-06-01T12:36:11.269Z,42.06
2019-06-01T12:38:52.450Z,41.90
2019-06-01T12:41:24.741Z,40.81
2019-06-01T12:44:15.285Z,43.00
2019-06-01T12:46:46.978Z,40.07
2019-06-01T12:49:18.223Z,39.84
2019-06-01T12:51:49.376Z,43.07
2019-06-01T12:54:20.487Z,42.55
2019-06-01T12:56:51.677Z,43.69
2019-06-01T12:59:24.022Z,41.78
2019-06-01T13:01:55.138Z,43.00
2019-06-01T13:04:26.277Z,41.77
2019-06-01T13:06:57.435Z,42.85
2019-06-01T13:09:28.533Z,41.01
2019-06-01T13:11:59.736Z,42.31
2019-06-01T13:14:31.010Z,41.67
2019-06-01T13:17:07.569Z,42.56
2019-06-01T13:19:34.976Z,42.94
2019-06-01T13:22:06.176Z,43.48
2019-06-01T13:24:37.427Z,44.03
2019-06-01T13:27:08.556Z,42.06
2019-06-01T13:29:39.681Z,42.06
2019-06-01T13:32:10.850Z,41.04
2019-06-01T13:34:42.620Z,40.55
2019-06-01T13:37:13.933Z,41.20
2019-06-01T13:39:46.434Z,40.96
2019-06-01T13:42:17.939Z,40.80
2019-06-01T13:44:49.544Z,41.08
2019-06-01T13:47:22.025Z,42.11
2019-06-01T13:49:54.186Z,42.93
2019-06-01T13:52:25.321Z,42.30
2019-06-01T13:54:56.474Z,41.34
2019-06-01T13:57:27.535Z,43.22
2019-06-01T13:59:58.669Z,41.40
2019-06-01T14:02:29.835Z,41.22
2019-06-01T14:05:00.967Z,42.26
2019-06-01T14:07:32.028Z,41.46
2019-06-01T14:10:05.441Z,40.88
2019-06-01T14:12:36.571Z,40.83
2019-06-01T14:15:09.097Z,40.12
2019-06-01T14:17:40.257Z,39.66
2019-06-01T14:20:11.734Z,41.85
2019-06-01T14:22:42.899Z,41.76
2019-06-01T14:25:15.528Z,41.78
2019-06-01T14:27:48.262Z,41.18
2019-06-01T14:30:19.476Z,42.31
2019-06-01T14:32:50.578Z,42.52
2019-06-01T14:35:21.667Z,42.80
2019-06-01T14:37:53.397Z,42.15
2019-06-01T14:40:24.609Z,42.68
2019-06-01T14:42:55.772Z,42.97
2019-06-01T14:45:26.981Z,43.31
2019-06-01T14:47:58.056Z,42.14
2019-06-01T14:50:29.240Z,41.64
2019-06-01T14:53:00.495Z,42.30
2019-06-01T14:55:31.763Z,40.82
2019-06-01T14:58:02.946Z,40.97
2019-06-01T15:00:34.030Z,41.30
2019-06-01T15:03:05.649Z,41.30
2019-06-01T15:05:36.790Z,41.52
2019-06-01T15:08:07.954Z,42.82
2019-06-01T15:10:39.042Z,43.31
2019-06-01T15:13:10.237Z,42.02
2019-06-01T15:15:41.340Z,42.88
2019-06-01T15:18:12.448Z,40.36
2019-06-01T15:20:43.718Z,40.80
2019-06-01T15:23:15.985Z,39.93
2019-06-01T15:25:47.115Z,42.25
2019-06-01T15:28:18.184Z,42.20
2019-06-01T15:30:50.720Z,41.80
2019-06-01T15:33:22.097Z,42.01
2019-06-01T15:35:53.786Z,42.00
2019-06-01T15:38:25.076Z,43.42
2019-06-01T15:40:56.290Z,42.36
2019-06-01T15:43:27.426Z,41.21
2019-06-01T15:45:59.605Z,41.51
2019-06-01T15:48:30.960Z,40.81
2019-06-01T15:51:07.058Z,40.61
2019-06-01T15:53:34.890Z,41.89
2019-06-01T15:56:06.123Z,42.87
2019-06-01T15:58:51.945Z,42.55
2019-06-01T16:01:10.162Z,42.49
2019-06-01T16:03:41.213Z,40.94
2019-06-01T16:06:12.340Z,41.26
2019-06-01T16:08:43.507Z,41.49
2019-06-01T16:11:15.727Z,41.56
2019-06-01T16:13:46.979Z,41.43
2019-06-01T16:16:18.096Z,42.62
2019-06-01T16:18:49.166Z,44.06
2019-06-01T16:21:20.295Z,43.78
2019-06-01T16:23:51.529Z,44.95
2019-06-01T16:26:22.694Z,45.13
2019-06-01T16:28:54.326Z,46.29
2019-06-01T16:31:25.520Z,45.58
2019-06-01T16:33:56.667Z,45.25
2019-06-01T16:36:27.828Z,44.45
2019-06-01T16:39:02.856Z,45.09
2019-06-01T16:41:33.545Z,45.66
2019-06-01T16:44:05.846Z,44.88
2019-06-01T16:46:38.190Z,45.34
2019-06-01T16:49:09.322Z,45.48
2019-06-01T16:52:08.955Z,45.83
2019-06-01T16:54:40.342Z,46.08
2019-06-01T16:57:11.583Z,45.70
2019-06-01T16:59:42.692Z,45.28
2019-06-01T17:02:15.096Z,46.21
2019-06-01T17:04:46.241Z,46.49
2019-06-01T17:07:17.319Z,47.18
2019-06-01T17:09:48.473Z,47.12
2019-06-01T17:12:19.677Z,47.36
2019-06-01T17:14:50.943Z,46.80
2019-06-01T17:17:22.123Z,46.85
2019-06-01T17:19:53.342Z,46.30
2019-06-01T17:22:24.400Z,45.66
2019-06-01T17:24:55.567Z,47.31
2019-06-01T17:27:26.672Z,46.48
2019-06-01T17:29:58.110Z,46.84
2019-06-01T17:32:29.479Z,46.60
2019-06-01T17:35:03.057Z,47.07
2019-06-01T17:37:34.622Z,46.29
2019-06-01T17:40:06.430Z,45.77
2019-06-01T17:42:37.766Z,45.55
2019-06-01T17:45:09.650Z,44.39
2019-06-01T17:47:41.098Z,46.56
2019-06-01T17:50:13.269Z,44.96
2019-06-01T17:52:44.680Z,45.05
2019-06-01T17:55:32.131Z,44.81
2019-06-01T17:58:03.694Z,44.44
2019-06-01T18:00:34.911Z,45.13
2019-06-01T18:03:08.010Z,44.68
2019-06-01T18:05:39.324Z,44.87
2019-06-01T18:08:10.610Z,45.56
2019-06-01T18:10:53.476Z,46.03
2019-06-01T18:13:15.092Z,45.72
2019-06-01T18:15:49.862Z,44.92
2019-06-01T18:18:19.241Z,44.81
2019-06-01T18:20:50.475Z,45.89
2019-06-01T18:23:21.720Z,45.40
2019-06-01T18:25:53.005Z,44.81
2019-06-01T18:28:24.406Z,45.35
2019-06-01T18:30:55.637Z,45.59
2019-06-01T18:33:26.945Z,46.00
2019-06-01T18:35:58.180Z,46.84
2019-06-01T18:38:29.410Z,46.90
2019-06-01T18:41:09.507Z,46.41
2019-06-01T18:43:33.362Z,48.40
2019-06-01T18:46:05.695Z,48.84
2019-06-01T18:48:36.951Z,49.72
2019-06-01T18:51:08.321Z,49.07
2019-06-01T18:53:40.487Z,48.79
2019-06-01T18:56:12.292Z,49.40
2019-06-01T18:58:43.637Z,50.09
2019-06-01T19:01:20.006Z,48.72
2019-06-01T19:03:48.140Z,48.53
2019-06-01T19:06:19.286Z,49.66
2019-06-01T19:08:50.373Z,50.39
2019-06-01T19:11:32.854Z,50.15
2019-06-01T19:13:54.442Z,49.91
2019-06-01T19:16:25.702Z,50.66
2019-06-01T19:18:56.849Z,51.51
2019-06-01T19:21:27.971Z,51.78
2019-06-01T19:23:59.659Z,52.32
2019-06-01T19:26:30.741Z,52.94
2019-06-01T19:29:01.837Z,52.93
2019-06-01T19:31:33.170Z,53.45
2019-06-01T19:34:04.322Z,53.73
2019-06-01T19:36:35.896Z,54.50
2019-06-01T19:39:09.215Z,54.65
2019-06-01T19:41:45.112Z,54.51
2019-06-01T19:44:15.688Z,54.70
2019-06-01T19:46:46.914Z,54.74
2019-06-01T19:49:18.981Z,55.90
2019-06-01T19:51:50.232Z,56.26
2019-06-01T19:54:21.554Z,56.79
2019-06-01T19:56:52.694Z,55.97
2019-06-01T19:59:23.804Z,56.07
2019-06-01T20:01:55.005Z,56.56
2019-06-01T20:04:26.224Z,56.62
2019-06-01T20:06:57.378Z,56.90
2019-06-01T20:09:28.455Z,57.32
2019-06-01T20:12:02.206Z,57.54
2019-06-01T20:14:32.627Z,57.86
2019-06-01T20:17:03.830Z,58.56
2019-06-01T20:19:34.879Z,58.74
2019-06-01T20:22:06.147Z,58.46
2019-06-01T20:24:37.183Z,58.67
2019-06-01T20:27:08.330Z,59.01
2019-06-01T20:29:39.566Z,59.46
2019-06-01T20:32:11.650Z,60.32
2019-06-01T20:34:42.778Z,59.66
2019-06-01T20:37:13.979Z,60.05
2019-06-01T20:39:45.336Z,59.74
2019-06-01T20:42:22.292Z,59.65
2019-06-01T20:44:49.341Z,60.33
2019-06-01T20:47:20.988Z,60.55
2019-06-01T20:49:52.304Z,61.11
2019-06-01T20:52:23.454Z,61.16
2019-06-01T20:54:54.579Z,61.58
2019-06-01T20:57:25.779Z,61.68
2019-06-01T20:59:56.944Z,61.73
2019-06-01T21:02:28.258Z,61.79
2019-06-01T21:05:00.072Z,61.41
2019-06-01T21:07:31.148Z,61.22
2019-06-01T21:10:02.303Z,61.45
2019-06-01T21:12:44.818Z,61.75
2019-06-01T21:15:07.096Z,62.17
2019-06-01T21:17:38.266Z,62.50
2019-06-01T21:20:10.736Z,61.77
2019-06-01T21:22:42.263Z,62.77
2019-06-01T21:25:14.796Z,62.31
2019-06-01T21:27:46.071Z,62.90
2019-06-01T21:30:18.768Z,62.90
2019-06-01T21:32:50.202Z,62.94
2019-06-01T21:35:21.468Z,62.99
2019-06-01T21:37:52.634Z,63.13
2019-06-01T21:40:23.871Z,63.54
2019-06-01T21:43:06.891Z,63.61
2019-06-01T21:45:28.261Z,64.07
2019-06-01T21:47:59.278Z,64.05
2019-06-01T21:50:30.472Z,64.46
2019-06-01T21:53:01.627Z,64.94
2019-06-01T21:55:32.919Z,64.56
2019-06-01T21:58:04.397Z,64.44
2019-06-01T22:00:38.033Z,64.08
2019-06-01T22:03:10.992Z,63.78
2019-06-01T22:05:42.224Z,63.67
2019-06-01T22:08:13.387Z,63.15
2019-06-01T22:10:45.215Z,63.63
2019-06-01T22:13:19.314Z,63.66
2019-06-01T22:15:49.351Z,63.71
2019-06-01T22:18:21.609Z,63.39
2019-06-01T22:20:54.114Z,63.61
2019-06-01T22:23:26.114Z,63.82
2019-06-01T22:25:57.278Z,64.04
2019-06-01T22:28:28.690Z,63.80
2019-06-01T22:31:00.337Z,63.91
2019-06-01T22:33:31.472Z,64.48
2019-06-01T22:36:02.625Z,64.29
2019-06-01T22:38:35.050Z,65.03
2019-06-01T22:41:06.352Z,65.00
2019-06-01T22:43:46.176Z,64.58
2019-06-01T22:46:10.250Z,64.46
2019-06-01T22:48:41.489Z,64.82
2019-06-01T22:51:12.631Z,64.81
2019-06-01T22:53:43.878Z,64.77
2019-06-01T22:56:15.154Z,65.05
2019-06-01T22:58:46.581Z,65.17
2019-06-01T23:01:34.488Z,65.11
2019-06-01T23:04:02.396Z,64.60
2019-06-01T23:06:33.601Z,64.13
2019-06-01T23:09:07.708Z,64.27
2019-06-01T23:11:38.858Z,64.71
2019-06-01T23:14:10.010Z,64.84
2019-06-01T23:16:41.230Z,65.07
2019-06-01T23:19:12.380Z,64.96
2019-06-01T23:21:43.510Z,65.15
2019-06-01T23:24:14.672Z,65.23
2019-06-01T23:26:45.896Z,65.74
2019-06-01T23:29:17.027Z,65.47
2019-06-01T23:31:48.123Z,65.45
2019-06-01T23:34:19.253Z,65.79
2019-06-01T23:36:50.497Z,65.67
2019-06-01T23:39:22.687Z,65.71
2019-06-01T23:41:53.909Z,65.58
2019-06-01T23:44:29.332Z,64.90
2019-06-01T23:46:58.095Z,65.01
2019-06-01T23:49:29.309Z,65.92
2019-06-01T23:52:00.412Z,65.67
2019-06-01T23:54:32.424Z,65.32
2019-06-01T23:57:04.224Z,65.30
2019-06-01T23:59:35.330Z,65.32
